createdAt,value
2022-11-29T00:00:50.066Z,7.46
2022-11-29T00:05:51.735Z,7.37
2022-11-29T00:10:53.432Z,7.43
2022-11-29T00:15:54.929Z,7.41
2022-11-29T00:20:56.790Z,7.42
2022-11-29T00:26:08.017Z,7.35
2022-11-29T00:31:25.495Z,7.33
2022-11-29T00:36:27.899Z,7.35
2022-11-29T00:41:29.437Z,7.26
2022-11-29T00:46:30.959Z,7.35
2022-11-29T00:51:32.794Z,7.28
2022-11-29T00:56:34.659Z,7.17
2022-11-29T01:01:37.356Z,7.24
2022-11-29T01:06:39.110Z,7.33
2022-11-29T01:11:40.638Z,7.32
2022-11-29T01:16:42.318Z,7.26
2022-11-29T01:21:43.835Z,7.20
2022-11-29T01:26:45.448Z,7.26
2022-11-29T01:31:47.026Z,7.33
2022-11-29T01:36:48.602Z,7.25
2022-11-29T01:41:50.265Z,7.24
2022-11-29T01:46:53.836Z,7.22
2022-11-29T01:52:00.926Z,7.26
2022-11-29T01:57:05.457Z,7.23
2022-11-29T02:02:14.079Z,7.26
2022-11-29T02:07:16.123Z,7.24
2022-11-29T02:12:59.625Z,7.27
2022-11-29T02:18:06.698Z,7.22
2022-11-29T02:23:26.552Z,7.26
2022-11-29T02:29:04.978Z,7.28
2022-11-29T02:34:10.932Z,7.20
2022-11-29T02:39:26.597Z,7.17
2022-11-29T02:44:46.057Z,7.16
2022-11-29T02:50:05.919Z,7.10
2022-11-29T02:55:20.926Z,7.06
2022-11-29T03:00:23.752Z,7.10
2022-11-29T03:05:38.540Z,7.07
2022-11-29T03:10:52.421Z,7.03
2022-11-29T03:16:03.363Z,7.11
2022-11-29T03:21:32.395Z,7.13
2022-11-29T03:26:48.552Z,7.16
2022-11-29T03:32:02.523Z,7.10
2022-11-29T03:37:18.409Z,7.03
2022-11-29T03:42:30.330Z,7.04
2022-11-29T03:48:22.683Z,7.04
2022-11-29T03:53:35.823Z,7.10
2022-11-29T03:59:03.711Z,6.99
2022-11-29T04:04:34.686Z,7.06
2022-11-29T04:10:09.988Z,7.03
2022-11-29T04:15:49.685Z,6.81
2022-11-29T04:21:12.791Z,6.98
2022-11-29T04:26:44.813Z,6.86
2022-11-29T04:31:52.388Z,7.00
2022-11-29T04:37:35.619Z,6.86
2022-11-29T04:42:55.758Z,6.85
2022-11-29T04:48:06.466Z,6.87
2022-11-29T04:53:29.176Z,6.89
2022-11-29T04:58:51.016Z,6.85
2022-11-29T05:04:13.927Z,6.83
2022-11-29T05:09:35.390Z,6.79
2022-11-29T05:15:05.041Z,6.75
2022-11-29T05:20:28.629Z,6.67
2022-11-29T05:25:48.576Z,6.71
2022-11-29T05:30:56.219Z,6.61
2022-11-29T05:36:29.201Z,6.61
2022-11-29T05:41:54.030Z,6.66
2022-11-29T05:46:59.616Z,6.51
2022-11-29T05:52:34.956Z,6.44
2022-11-29T05:58:08.429Z,6.47
2022-11-29T06:03:30.070Z,6.41
2022-11-29T06:08:40.212Z,6.42
2022-11-29T06:13:42.600Z,6.31
2022-11-29T06:18:47.143Z,6.37
2022-11-29T06:24:05.907Z,6.31
2022-11-29T06:29:23.673Z,6.35
2022-11-29T06:34:49.265Z,6.38
2022-11-29T06:39:51.259Z,6.35
2022-11-29T06:44:53.085Z,6.34
2022-11-29T06:50:03.298Z,6.42
2022-11-29T06:55:07.893Z,6.35
2022-11-29T07:00:19.325Z,6.32
2022-11-29T07:05:28.920Z,6.28
2022-11-29T07:10:33.231Z,6.24
2022-11-29T07:15:36.931Z,6.26
2022-11-29T07:21:06.334Z,6.30
2022-11-29T07:26:19.096Z,6.34
2022-11-29T07:31:35.304Z,6.29
2022-11-29T07:37:00.487Z,6.33
2022-11-29T07:42:05.049Z,6.31
2022-11-29T07:47:08.789Z,6.31
2022-11-29T07:52:15.620Z,6.37
2022-11-29T07:57:17.143Z,6.40
2022-11-29T08:02:32.123Z,6.46
2022-11-29T08:07:35.397Z,6.51
2022-11-29T08:12:45.470Z,6.44
2022-11-29T08:17:47.233Z,6.54
2022-11-29T08:22:59.160Z,6.57
2022-11-29T08:28:02.239Z,6.60
2022-11-29T08:33:04.138Z,6.65
2022-11-29T08:38:05.747Z,6.71
2022-11-29T08:43:07.592Z,6.75
2022-11-29T08:48:11.587Z,6.65
2022-11-29T08:53:32.818Z,6.67
2022-11-29T08:58:36.219Z,6.67
2022-11-29T09:03:57.355Z,6.75
2022-11-29T09:08:59.955Z,6.81
2022-11-29T09:14:05.424Z,6.61
2022-11-29T09:19:07.932Z,6.82
2022-11-29T09:24:10.271Z,6.82
2022-11-29T09:29:11.971Z,6.99
2022-11-29T09:34:18.619Z,7.03
2022-11-29T09:39:23.364Z,6.89
2022-11-29T09:44:53.359Z,7.01
2022-11-29T09:50:27.589Z,7.06
2022-11-29T09:55:59.537Z,7.05
2022-11-29T10:01:08.542Z,7.10
2022-11-29T10:06:23.171Z,7.22
2022-11-29T10:12:00.392Z,7.34
2022-11-29T10:17:13.725Z,7.21
2022-11-29T10:22:41.161Z,7.24
2022-11-29T10:27:43.111Z,7.36
2022-11-29T10:32:52.102Z,7.38
2022-11-29T10:38:29.161Z,7.51
2022-11-29T10:43:20.751Z,7.48
2022-11-29T10:48:27.271Z,7.48
2022-11-29T10:53:38.649Z,7.48
2022-11-29T10:58:55.433Z,7.41
2022-11-29T11:04:00.407Z,7.40
2022-11-29T11:09:21.478Z,7.50
2022-11-29T11:14:28.014Z,7.55
2022-11-29T11:19:33.337Z,7.30
2022-11-29T11:24:41.117Z,7.20
2022-11-29T11:29:44.992Z,7.26
2022-11-29T11:34:59.073Z,7.48
2022-11-29T11:40:25.764Z,7.55
2022-11-29T11:45:33.113Z,7.51
2022-11-29T11:51:01.157Z,7.50
2022-11-29T11:56:08.701Z,7.33
2022-11-29T12:01:13.243Z,7.28
2022-11-29T12:06:18.947Z,7.32
2022-11-29T12:11:20.998Z,7.20
2022-11-29T12:16:34.765Z,7.10
2022-11-29T12:21:42.547Z,7.10
2022-11-29T12:27:00.043Z,7.12
2022-11-29T12:32:13.843Z,7.32
2022-11-29T12:37:39.056Z,7.37
2022-11-29T12:42:59.235Z,7.24
2022-11-29T12:48:25.391Z,7.44
2022-11-29T12:54:28.062Z,7.51
2022-11-29T12:59:44.596Z,7.50
2022-11-29T13:05:11.882Z,7.61
2022-11-29T13:10:24.871Z,7.75
2022-11-29T13:15:43.009Z,7.90
2022-11-29T13:20:48.449Z,8.29
2022-11-29T13:25:54.313Z,8.89
2022-11-29T13:31:05.170Z,8.72
2022-11-29T13:37:12.592Z,8.28
2022-11-29T13:42:35.302Z,8.16
2022-11-29T13:48:28.387Z,8.21
2022-11-29T13:53:48.139Z,8.10
2022-11-29T13:59:08.797Z,8.00
2022-11-29T14:11:13.595Z,7.84
2022-11-29T14:16:20.966Z,7.94
2022-11-29T14:21:22.502Z,7.83
2022-11-29T14:26:28.501Z,7.84
2022-11-29T14:31:51.145Z,7.83
2022-11-29T14:37:22.060Z,7.87
2022-11-29T14:42:26.646Z,7.60
2022-11-29T14:47:32.950Z,7.56
2022-11-29T14:52:49.963Z,7.51
2022-11-29T14:58:01.284Z,7.42
2022-11-29T15:03:16.522Z,7.40
2022-11-29T15:08:25.245Z,7.27
2022-11-29T15:13:35.906Z,7.22
2022-11-29T15:18:57.957Z,7.11
2022-11-29T15:24:09.095Z,7.02
2022-11-29T15:29:17.013Z,7.08
2022-11-29T15:34:29.606Z,7.04
2022-11-29T15:39:40.590Z,7.08
2022-11-29T15:44:46.658Z,7.13
2022-11-29T15:49:52.432Z,7.19
2022-11-29T15:55:02.705Z,7.19
2022-11-29T16:00:08.138Z,7.20
2022-11-29T16:05:31.701Z,7.21
2022-11-29T16:10:43.764Z,7.19
2022-11-29T16:15:45.452Z,7.15
2022-11-29T16:21:00.236Z,7.12
2022-11-29T16:26:04.438Z,7.06
2022-11-29T16:31:06.360Z,7.04
2022-11-29T16:36:18.809Z,7.05
2022-11-29T16:41:32.329Z,7.04
2022-11-29T16:46:40.429Z,7.06
2022-11-29T16:51:48.351Z,7.04
2022-11-29T16:56:52.113Z,7.06
2022-11-29T17:02:00.328Z,7.04
2022-11-29T17:07:02.162Z,7.12
2022-11-29T17:12:04.287Z,7.10
2022-11-29T17:17:06.365Z,7.11
2022-11-29T17:22:07.930Z,7.10
2022-11-29T17:27:09.686Z,7.06
2022-11-29T17:32:11.269Z,7.07
2022-11-29T17:37:12.870Z,7.07
2022-11-29T17:42:14.605Z,7.09
2022-11-29T17:47:41.377Z,7.09
2022-11-29T17:52:45.916Z,7.08
2022-11-29T17:57:47.523Z,7.09
2022-11-29T18:02:49.171Z,7.11
2022-11-29T18:07:59.779Z,7.07
2022-11-29T18:13:01.655Z,7.09
2022-11-29T18:18:03.533Z,7.07
2022-11-29T18:23:07.975Z,7.07
2022-11-29T18:28:11.274Z,7.04
2022-11-29T18:33:12.872Z,7.05
2022-11-29T18:38:16.473Z,7.07
2022-11-29T18:43:18.297Z,7.11
2022-11-29T18:48:20.891Z,7.12
2022-11-29T18:53:23.567Z,7.10
2022-11-29T18:58:25.279Z,7.14
2022-11-29T19:03:26.809Z,7.18
2022-11-29T19:08:28.352Z,7.15
2022-11-29T19:13:30.908Z,7.16
2022-11-29T19:18:34.344Z,7.19
2022-11-29T19:23:40.288Z,7.20
2022-11-29T19:29:07.584Z,7.19
2022-11-29T19:34:09.172Z,7.21
2022-11-29T19:39:14.713Z,7.17
2022-11-29T19:44:25.237Z,7.23
2022-11-29T19:49:30.839Z,7.21
2022-11-29T19:54:32.348Z,7.21
2022-11-29T19:59:33.947Z,7.20
2022-11-29T20:04:37.483Z,7.22
2022-11-29T20:09:43.950Z,7.25
2022-11-29T20:14:45.624Z,7.23
2022-11-29T20:19:47.582Z,7.24
2022-11-29T20:24:49.348Z,7.25
2022-11-29T20:29:51.143Z,7.30
2022-11-29T20:34:53.155Z,7.32
2022-11-29T20:40:00.174Z,7.29
2022-11-29T20:45:06.285Z,7.29
2022-11-29T20:50:23.699Z,7.37
2022-11-29T20:55:25.954Z,7.39
2022-11-29T21:00:27.782Z,7.39
2022-11-29T21:05:29.407Z,7.28
2022-11-29T21:10:31.087Z,7.17
2022-11-29T21:15:32.999Z,7.00
2022-11-29T21:20:34.646Z,6.95
2022-11-29T21:25:59.592Z,6.91
2022-11-29T21:31:01.560Z,6.84
2022-11-29T21:36:06.124Z,6.78
2022-11-29T21:41:07.740Z,6.72
2022-11-29T21:46:10.444Z,6.63
2022-11-29T21:51:12.586Z,6.59
2022-11-29T21:56:14.536Z,6.40
2022-11-29T22:01:18.625Z,6.42
2022-11-29T22:06:24.344Z,6.28
2022-11-29T22:11:47.933Z,6.22
2022-11-29T22:16:53.530Z,6.09
2022-11-29T22:22:00.252Z,6.06
2022-11-29T22:27:01.900Z,6.06
2022-11-29T22:32:03.670Z,5.99
2022-11-29T22:37:05.360Z,5.94
2022-11-29T22:42:06.886Z,5.88
2022-11-29T22:47:08.512Z,5.86
2022-11-29T22:52:10.082Z,5.83
2022-11-29T22:57:11.695Z,5.79
2022-11-29T23:02:13.474Z,5.77
2022-11-29T23:07:15.486Z,5.77
2022-11-29T23:12:17.233Z,5.76
2022-11-29T23:17:18.874Z,5.75
2022-11-29T23:22:20.392Z,5.74
2022-11-29T23:27:21.928Z,5.74
2022-11-29T23:32:24.985Z,5.71
2022-11-29T23:37:27.545Z,5.72
2022-11-29T23:42:29.157Z,5.71
2022-11-29T23:47:30.804Z,5.71
2022-11-29T23:52:32.469Z,5.70
2022-11-29T23:57:34.066Z,5.75
